createdAt,value
2023-05-14T00:00:36.373Z,545.00
2023-05-14T00:01:36.400Z,548.00
2023-05-14T00:02:36.484Z,536.00
2023-05-14T00:03:36.495Z,543.00
2023-05-14T00:04:36.565Z,542.00
2023-05-14T00:05:36.425Z,538.00
2023-05-14T00:06:36.454Z,549.00
2023-05-14T00:07:36.456Z,535.00
2023-05-14T00:08:36.472Z,540.00
2023-05-14T00:09:36.482Z,548.00
2023-05-14T00:10:36.525Z,548.00
2023-05-14T00:11:36.535Z,548.00
2023-05-14T00:12:36.529Z,534.00
2023-05-14T00:13:36.538Z,533.00
2023-05-14T00:14:36.555Z,530.00
2023-05-14T00:15:36.578Z,547.00
2023-05-14T00:16:36.655Z,544.00
2023-05-14T00:17:36.637Z,533.00
2023-05-14T00:18:36.637Z,529.00
2023-05-14T00:19:36.639Z,535.00
2023-05-14T00:20:36.643Z,523.00
2023-05-14T00:21:36.662Z,540.00
2023-05-14T00:22:36.667Z,539.00
2023-05-14T00:23:36.680Z,545.00
2023-05-14T00:24:36.727Z,529.00
2023-05-14T00:25:36.713Z,537.00
2023-05-14T00:26:36.748Z,539.00
2023-05-14T00:27:36.756Z,535.00
2023-05-14T00:28:36.790Z,534.00
2023-05-14T00:29:36.847Z,538.00
2023-05-14T00:30:36.798Z,528.00
2023-05-14T00:31:36.881Z,529.00
2023-05-14T00:32:36.867Z,544.00
2023-05-14T00:33:36.864Z,534.00
2023-05-14T00:34:36.899Z,543.00
2023-05-14T00:35:36.870Z,527.00
2023-05-14T00:36:36.889Z,538.00
2023-05-14T00:37:36.909Z,537.00
2023-05-14T00:38:36.941Z,545.00
2023-05-14T00:39:36.939Z,539.00
2023-05-14T00:40:36.962Z,541.00
2023-05-14T00:41:36.967Z,538.00
2023-05-14T00:42:36.984Z,533.00
2023-05-14T00:43:37.007Z,526.00
2023-05-14T00:44:37.018Z,537.00
2023-05-14T00:45:37.040Z,539.00
2023-05-14T00:46:37.063Z,543.00
2023-05-14T00:47:37.090Z,526.00
2023-05-14T00:48:37.085Z,539.00
2023-05-14T00:49:37.088Z,544.00
2023-05-14T00:50:37.109Z,546.00
2023-05-14T00:51:37.137Z,533.00
2023-05-14T00:52:37.132Z,540.00
2023-05-14T00:53:37.167Z,530.00
2023-05-14T00:54:37.165Z,537.00
2023-05-14T00:55:37.184Z,537.00
2023-05-14T00:56:37.206Z,548.00
2023-05-14T00:57:37.219Z,535.00
2023-05-14T00:58:37.231Z,545.00
2023-05-14T00:59:37.267Z,532.00
2023-05-14T01:00:37.335Z,529.00
2023-05-14T01:01:37.295Z,530.00
2023-05-14T01:02:37.379Z,544.00
2023-05-14T01:03:37.456Z,531.00
2023-05-14T01:04:37.352Z,535.00
2023-05-14T01:05:37.355Z,529.00
2023-05-14T01:06:37.364Z,536.00
2023-05-14T01:07:37.400Z,539.00
2023-05-14T01:08:37.426Z,535.00
2023-05-14T01:09:37.447Z,529.00
2023-05-14T01:10:37.488Z,529.00
2023-05-14T01:11:37.470Z,535.00
2023-05-14T01:12:37.469Z,528.00
2023-05-14T01:13:37.500Z,538.00
2023-05-14T01:14:37.512Z,533.00
2023-05-14T01:15:37.555Z,540.00
2023-05-14T01:16:37.560Z,533.00
2023-05-14T01:17:37.587Z,548.00
2023-05-14T01:18:37.669Z,537.00
2023-05-14T01:19:37.585Z,534.00
2023-05-14T01:20:37.620Z,539.00
2023-05-14T01:21:37.623Z,536.00
2023-05-14T01:22:37.626Z,527.00
2023-05-14T01:23:37.653Z,546.00
2023-05-14T01:24:37.663Z,526.00
2023-05-14T01:25:37.664Z,526.00
2023-05-14T01:26:37.715Z,541.00
2023-05-14T01:27:37.694Z,545.00
2023-05-14T01:28:37.705Z,548.00
2023-05-14T01:29:37.718Z,528.00
2023-05-14T01:30:37.730Z,534.00
2023-05-14T01:31:37.774Z,531.00
2023-05-14T01:32:37.758Z,526.00
2023-05-14T01:33:37.798Z,538.00
2023-05-14T01:34:37.778Z,538.00
2023-05-14T01:35:37.793Z,532.00
2023-05-14T01:36:37.812Z,536.00
2023-05-14T01:37:37.815Z,538.00
2023-05-14T01:38:37.837Z,531.00
2023-05-14T01:39:37.859Z,534.00
2023-05-14T01:40:37.851Z,546.00
2023-05-14T01:41:37.862Z,542.00
2023-05-14T01:42:37.860Z,529.00
2023-05-14T01:43:37.940Z,527.00
2023-05-14T01:44:37.905Z,526.00
2023-05-14T01:45:37.919Z,541.00
2023-05-14T01:46:38.125Z,533.00
2023-05-14T01:47:37.987Z,535.00
2023-05-14T01:48:37.970Z,548.00
2023-05-14T01:49:37.990Z,519.00
2023-05-14T01:50:38.008Z,524.00
2023-05-14T01:51:38.035Z,531.00
2023-05-14T01:52:38.047Z,539.00
2023-05-14T01:53:38.069Z,543.00
2023-05-14T01:54:38.083Z,529.00
2023-05-14T01:55:38.107Z,529.00
2023-05-14T01:56:38.117Z,539.00
2023-05-14T01:57:38.133Z,542.00
2023-05-14T01:58:38.149Z,544.00
2023-05-14T01:59:38.172Z,523.00
2023-05-14T02:00:38.210Z,530.00
2023-05-14T02:01:38.279Z,534.00
2023-05-14T02:02:38.275Z,530.00
2023-05-14T02:03:38.291Z,532.00
2023-05-14T02:04:38.346Z,545.00
2023-05-14T02:05:38.333Z,538.00
2023-05-14T02:06:38.350Z,531.00
2023-05-14T02:07:38.380Z,532.00
2023-05-14T02:08:38.420Z,531.00
2023-05-14T02:09:38.417Z,539.00
2023-05-14T02:10:38.439Z,532.00
2023-05-14T02:11:38.464Z,536.00
2023-05-14T02:12:38.478Z,526.00
2023-05-14T02:13:38.507Z,530.00
2023-05-14T02:14:38.514Z,536.00
2023-05-14T02:15:38.584Z,527.00
2023-05-14T02:16:38.563Z,539.00
2023-05-14T02:17:38.674Z,531.00
2023-05-14T02:18:38.658Z,537.00
2023-05-14T02:19:38.648Z,543.00
2023-05-14T02:20:38.657Z,533.00
2023-05-14T02:21:38.679Z,530.00
2023-05-14T02:22:38.702Z,541.00
2023-05-14T02:23:41.836Z,537.00
2023-05-14T02:24:38.723Z,536.00
2023-05-14T02:25:38.730Z,536.00
2023-05-14T02:26:38.692Z,533.00
2023-05-14T02:27:38.683Z,532.00
2023-05-14T02:28:38.723Z,534.00
2023-05-14T02:29:38.712Z,529.00
2023-05-14T02:30:38.680Z,537.00
2023-05-14T02:31:38.672Z,528.00
2023-05-14T02:32:38.753Z,526.00
2023-05-14T02:33:38.661Z,535.00
2023-05-14T02:34:38.641Z,536.00
2023-05-14T02:35:38.647Z,540.00
2023-05-14T02:36:38.620Z,535.00
2023-05-14T02:37:38.644Z,535.00
2023-05-14T02:38:38.613Z,534.00
2023-05-14T02:39:38.643Z,535.00
2023-05-14T02:40:38.609Z,537.00
2023-05-14T02:41:38.594Z,531.00
2023-05-14T02:42:38.586Z,524.00
2023-05-14T02:43:38.592Z,523.00
2023-05-14T02:44:38.581Z,520.00
2023-05-14T02:45:38.590Z,542.00
2023-05-14T02:46:38.582Z,537.00
2023-05-14T02:47:38.605Z,531.00
2023-05-14T02:48:38.554Z,541.00
2023-05-14T02:49:38.544Z,534.00
2023-05-14T02:50:38.541Z,528.00
2023-05-14T02:51:38.548Z,531.00
2023-05-14T02:52:38.541Z,525.00
2023-05-14T02:53:38.533Z,524.00
2023-05-14T02:54:38.520Z,522.00
2023-05-14T02:55:38.511Z,542.00
2023-05-14T02:56:38.518Z,539.00
2023-05-14T02:57:38.506Z,541.00
2023-05-14T02:58:38.488Z,520.00
2023-05-14T02:59:38.495Z,526.00
2023-05-14T03:00:38.514Z,530.00
2023-05-14T03:01:38.489Z,540.00
2023-05-14T03:02:38.551Z,529.00
2023-05-14T03:03:38.453Z,528.00
2023-05-14T03:04:38.455Z,534.00
2023-05-14T03:05:38.457Z,536.00
2023-05-14T03:06:38.442Z,525.00
2023-05-14T03:07:38.429Z,537.00
2023-05-14T03:08:38.432Z,544.00
2023-05-14T03:09:38.577Z,530.00
2023-05-14T03:10:38.422Z,538.00
2023-05-14T03:11:38.419Z,529.00
2023-05-14T03:12:38.390Z,528.00
2023-05-14T03:13:38.395Z,540.00
2023-05-14T03:14:38.374Z,530.00
2023-05-14T03:15:38.373Z,528.00
2023-05-14T03:16:38.390Z,539.00
2023-05-14T03:17:38.411Z,524.00
2023-05-14T03:18:38.398Z,515.00
2023-05-14T03:19:38.337Z,529.00
2023-05-14T03:20:38.344Z,538.00
2023-05-14T03:21:38.346Z,520.00
2023-05-14T03:22:38.336Z,526.00
2023-05-14T03:23:38.351Z,537.00
2023-05-14T03:24:38.396Z,544.00
2023-05-14T03:25:38.419Z,535.00
2023-05-14T03:26:38.447Z,535.00
2023-05-14T03:27:38.473Z,535.00
2023-05-14T03:28:38.520Z,522.00
2023-05-14T03:29:38.561Z,529.00
2023-05-14T03:30:38.600Z,534.00
2023-05-14T03:31:38.607Z,534.00
2023-05-14T03:32:38.678Z,531.00
2023-05-14T03:33:38.661Z,521.00
2023-05-14T03:34:38.696Z,532.00
2023-05-14T03:35:38.751Z,537.00
2023-05-14T03:36:38.743Z,528.00
2023-05-14T03:37:38.778Z,532.00
2023-05-14T03:38:38.800Z,527.00
2023-05-14T03:39:38.836Z,537.00
2023-05-14T03:40:38.861Z,539.00
2023-05-14T03:41:38.880Z,535.00
2023-05-14T03:42:38.891Z,534.00
2023-05-14T03:43:38.922Z,539.00
2023-05-14T03:44:38.945Z,524.00
2023-05-14T03:45:38.993Z,524.00
2023-05-14T03:46:38.989Z,524.00
2023-05-14T03:47:39.062Z,524.00
2023-05-14T03:48:39.073Z,529.00
2023-05-14T03:49:39.064Z,532.00
2023-05-14T03:50:39.105Z,532.00
2023-05-14T03:51:39.168Z,534.00
2023-05-14T03:52:39.144Z,540.00
2023-05-14T03:53:39.190Z,528.00
2023-05-14T03:54:39.207Z,532.00
2023-05-14T03:55:39.241Z,534.00
2023-05-14T03:56:39.283Z,520.00
2023-05-14T03:57:39.281Z,520.00
2023-05-14T03:58:39.305Z,525.00
2023-05-14T03:59:39.320Z,525.00
2023-05-14T04:00:39.348Z,525.00
2023-05-14T04:01:39.388Z,530.00
2023-05-14T04:02:39.621Z,516.00
2023-05-14T04:03:39.513Z,517.00
2023-05-14T04:04:39.502Z,525.00
2023-05-14T04:05:39.476Z,521.00
2023-05-14T04:06:39.500Z,535.00
2023-05-14T04:07:39.559Z,532.00
2023-05-14T04:08:39.556Z,522.00
2023-05-14T04:09:39.588Z,532.00
2023-05-14T04:10:39.610Z,529.00
2023-05-14T04:11:39.646Z,529.00
2023-05-14T04:12:39.653Z,522.00
2023-05-14T04:13:39.678Z,534.00
2023-05-14T04:14:39.699Z,519.00
2023-05-14T04:15:39.724Z,521.00
2023-05-14T04:16:39.819Z,527.00
2023-05-14T04:17:39.810Z,529.00
2023-05-14T04:18:39.829Z,532.00
2023-05-14T04:19:39.822Z,527.00
2023-05-14T04:20:39.851Z,522.00
2023-05-14T04:21:39.903Z,534.00
2023-05-14T04:22:39.917Z,523.00
2023-05-14T04:23:39.935Z,516.00
2023-05-14T04:24:39.930Z,527.00
2023-05-14T04:25:39.962Z,516.00
2023-05-14T04:26:39.986Z,518.00
2023-05-14T04:27:40.004Z,524.00
2023-05-14T04:28:40.039Z,526.00
2023-05-14T04:29:40.056Z,529.00
2023-05-14T04:30:40.086Z,525.00
2023-05-14T04:31:40.158Z,524.00
2023-05-14T04:32:40.155Z,523.00
2023-05-14T04:33:40.201Z,530.00
2023-05-14T04:34:40.184Z,517.00
2023-05-14T04:35:40.224Z,535.00
2023-05-14T04:36:40.273Z,516.00
2023-05-14T04:37:40.258Z,515.00
2023-05-14T04:38:40.287Z,526.00
2023-05-14T04:39:40.310Z,527.00
2023-05-14T04:40:40.362Z,532.00
2023-05-14T04:41:40.384Z,532.00
2023-05-14T04:42:40.385Z,513.00
2023-05-14T04:43:40.415Z,528.00
2023-05-14T04:44:40.468Z,525.00
2023-05-14T04:45:40.532Z,527.00
2023-05-14T04:46:40.495Z,525.00
2023-05-14T04:47:40.582Z,520.00
2023-05-14T04:48:40.556Z,522.00
2023-05-14T04:49:40.576Z,522.00
2023-05-14T04:50:40.602Z,527.00
2023-05-14T04:51:40.638Z,518.00
2023-05-14T04:52:40.673Z,511.00
2023-05-14T04:53:40.682Z,520.00
2023-05-14T04:54:40.771Z,523.00
2023-05-14T04:55:40.712Z,526.00
2023-05-14T04:56:40.758Z,521.00
2023-05-14T04:57:40.765Z,526.00
2023-05-14T04:58:40.802Z,519.00
2023-05-14T04:59:40.834Z,526.00
2023-05-14T05:00:40.863Z,525.00
2023-05-14T05:01:40.977Z,530.00
2023-05-14T05:02:40.941Z,535.00
2023-05-14T05:03:40.977Z,521.00
2023-05-14T05:04:40.989Z,525.00
2023-05-14T05:05:41.010Z,516.00
2023-05-14T05:06:41.036Z,521.00
2023-05-14T05:07:41.126Z,526.00
2023-05-14T05:08:41.101Z,529.00
2023-05-14T05:09:41.152Z,524.00
2023-05-14T05:10:41.178Z,526.00
2023-05-14T05:11:41.559Z,523.00
2023-05-14T05:12:41.227Z,523.00
2023-05-14T05:13:41.255Z,522.00
2023-05-14T05:14:41.303Z,520.00
2023-05-14T05:15:41.305Z,523.00
2023-05-14T05:16:41.337Z,524.00
2023-05-14T05:17:41.388Z,525.00
2023-05-14T05:18:41.433Z,525.00
2023-05-14T05:19:44.290Z,532.00
2023-05-14T05:20:41.411Z,527.00
2023-05-14T05:21:41.409Z,521.00
2023-05-14T05:22:41.400Z,526.00
2023-05-14T05:23:41.385Z,530.00
2023-05-14T05:24:41.387Z,517.00
2023-05-14T05:25:41.381Z,512.00
2023-05-14T05:26:41.375Z,516.00
2023-05-14T05:27:41.356Z,520.00
2023-05-14T05:28:41.353Z,528.00
2023-05-14T05:29:41.359Z,516.00
2023-05-14T05:30:41.354Z,531.00
2023-05-14T05:31:41.424Z,522.00
2023-05-14T05:32:41.374Z,525.00
2023-05-14T05:33:41.339Z,526.00
2023-05-14T05:34:41.312Z,519.00
2023-05-14T05:35:41.310Z,525.00
2023-05-14T05:36:41.306Z,515.00
2023-05-14T05:37:41.305Z,521.00
2023-05-14T05:38:41.293Z,522.00
2023-05-14T05:39:41.298Z,514.00
2023-05-14T05:40:41.282Z,521.00
2023-05-14T05:41:41.266Z,520.00
2023-05-14T05:42:41.279Z,526.00
2023-05-14T05:43:41.267Z,510.00
2023-05-14T05:44:41.245Z,521.00
2023-05-14T05:45:41.267Z,520.00
2023-05-14T05:46:41.362Z,521.00
2023-05-14T05:47:41.302Z,525.00
2023-05-14T05:48:41.218Z,511.00
2023-05-14T05:49:41.209Z,524.00
2023-05-14T05:50:41.228Z,525.00
2023-05-14T05:51:41.206Z,519.00
2023-05-14T05:52:41.198Z,511.00
2023-05-14T05:53:41.206Z,525.00
2023-05-14T05:54:41.174Z,518.00
2023-05-14T05:55:41.212Z,510.00
2023-05-14T05:56:41.165Z,529.00
2023-05-14T05:57:41.158Z,520.00
2023-05-14T05:58:41.146Z,518.00
2023-05-14T05:59:41.151Z,522.00
2023-05-14T06:00:41.137Z,522.00
2023-05-14T06:01:41.198Z,523.00
2023-05-14T06:02:41.220Z,520.00
2023-05-14T06:03:41.130Z,522.00
2023-05-14T06:04:41.109Z,516.00
2023-05-14T06:05:41.206Z,518.00
2023-05-14T06:06:41.095Z,517.00
2023-05-14T06:07:41.097Z,516.00
2023-05-14T06:08:41.080Z,523.00
2023-05-14T06:09:41.071Z,508.00
2023-05-14T06:10:41.068Z,516.00
2023-05-14T06:11:41.070Z,513.00
2023-05-14T06:12:41.055Z,520.00
2023-05-14T06:13:41.036Z,521.00
2023-05-14T06:14:41.038Z,517.00
2023-05-14T06:15:41.048Z,519.00
2023-05-14T06:16:41.038Z,521.00
2023-05-14T06:17:41.083Z,518.00
2023-05-14T06:18:41.097Z,520.00
2023-05-14T06:19:41.088Z,511.00
2023-05-14T06:20:41.110Z,520.00
2023-05-14T06:21:41.153Z,526.00
2023-05-14T06:22:41.174Z,507.00
2023-05-14T06:23:41.193Z,516.00
2023-05-14T06:24:41.217Z,524.00
2023-05-14T06:25:41.267Z,521.00
2023-05-14T06:26:41.276Z,508.00
2023-05-14T06:27:41.299Z,517.00
2023-05-14T06:28:41.329Z,526.00
2023-05-14T06:29:41.353Z,511.00
2023-05-14T06:30:41.393Z,512.00
2023-05-14T06:31:41.428Z,529.00
2023-05-14T06:32:41.551Z,522.00
2023-05-14T06:33:41.467Z,531.00
2023-05-14T06:34:41.481Z,516.00
2023-05-14T06:35:41.517Z,513.00
2023-05-14T06:36:41.549Z,507.00
2023-05-14T06:37:41.576Z,515.00
2023-05-14T06:38:41.577Z,509.00
2023-05-14T06:39:41.617Z,513.00
2023-05-14T06:40:41.637Z,514.00
2023-05-14T06:41:41.666Z,521.00
2023-05-14T06:42:41.686Z,518.00
2023-05-14T06:43:41.709Z,519.00
2023-05-14T06:44:41.732Z,512.00
2023-05-14T06:45:41.758Z,529.00
2023-05-14T06:46:41.767Z,517.00
2023-05-14T06:47:41.823Z,518.00
2023-05-14T06:48:41.834Z,519.00
2023-05-14T06:49:41.836Z,507.00
2023-05-14T06:50:41.847Z,520.00
2023-05-14T06:51:41.873Z,523.00
2023-05-14T06:52:41.896Z,515.00
2023-05-14T06:53:41.904Z,517.00
2023-05-14T06:54:41.943Z,519.00
2023-05-14T06:55:41.958Z,511.00
2023-05-14T06:56:41.978Z,513.00
2023-05-14T06:57:41.999Z,510.00
2023-05-14T06:58:42.014Z,511.00
2023-05-14T06:59:42.044Z,519.00
2023-05-14T07:00:42.055Z,530.00
2023-05-14T07:01:42.175Z,517.00
2023-05-14T07:02:42.127Z,519.00
2023-05-14T07:03:42.116Z,514.00
2023-05-14T07:04:42.314Z,515.00
2023-05-14T07:05:42.174Z,528.00
2023-05-14T07:06:42.197Z,522.00
2023-05-14T07:07:42.207Z,515.00
2023-05-14T07:08:42.243Z,513.00
2023-05-14T07:09:42.268Z,521.00
2023-05-14T07:10:42.271Z,510.00
2023-05-14T07:11:42.300Z,524.00
2023-05-14T07:12:42.320Z,512.00
2023-05-14T07:13:42.343Z,514.00
2023-05-14T07:14:42.347Z,513.00
2023-05-14T07:15:42.370Z,513.00
2023-05-14T07:16:42.457Z,509.00
2023-05-14T07:17:42.451Z,520.00
2023-05-14T07:18:42.449Z,509.00
2023-05-14T07:19:42.442Z,513.00
2023-05-14T07:20:42.455Z,512.00
2023-05-14T07:21:42.478Z,508.00
2023-05-14T07:22:42.508Z,511.00
2023-05-14T07:23:42.497Z,512.00
2023-05-14T07:24:42.554Z,515.00
2023-05-14T07:25:42.533Z,519.00
2023-05-14T07:26:42.581Z,515.00
2023-05-14T07:27:42.575Z,515.00
2023-05-14T07:28:42.621Z,521.00
2023-05-14T07:29:42.616Z,512.00
2023-05-14T07:30:42.623Z,515.00
2023-05-14T07:31:42.730Z,526.00
2023-05-14T07:32:42.706Z,509.00
2023-05-14T07:33:42.677Z,522.00
2023-05-14T07:34:42.691Z,509.00
2023-05-14T07:35:42.694Z,524.00
2023-05-14T07:36:42.706Z,522.00
2023-05-14T07:37:42.728Z,510.00
2023-05-14T07:38:42.731Z,509.00
2023-05-14T07:39:42.734Z,519.00
2023-05-14T07:40:42.778Z,504.00
2023-05-14T07:41:42.772Z,520.00
2023-05-14T07:42:42.771Z,512.00
2023-05-14T07:43:42.784Z,511.00
2023-05-14T07:44:42.811Z,511.00
2023-05-14T07:45:42.825Z,500.00
2023-05-14T07:46:42.840Z,505.00
2023-05-14T07:47:42.942Z,512.00
2023-05-14T07:48:42.869Z,511.00
2023-05-14T07:49:42.817Z,524.00
2023-05-14T07:50:42.817Z,521.00
2023-05-14T07:51:42.856Z,518.00
2023-05-14T07:52:42.821Z,511.00
2023-05-14T07:53:42.827Z,515.00
2023-05-14T07:54:42.841Z,518.00
2023-05-14T07:55:42.831Z,511.00
2023-05-14T07:56:42.873Z,509.00
2023-05-14T07:57:42.846Z,510.00
2023-05-14T07:58:42.857Z,514.00
2023-05-14T07:59:42.854Z,507.00
2023-05-14T08:00:42.838Z,502.00
2023-05-14T08:01:42.844Z,507.00
2023-05-14T08:02:42.928Z,510.00
2023-05-14T08:03:42.942Z,502.00
2023-05-14T08:04:42.833Z,510.00
2023-05-14T08:05:42.818Z,507.00
2023-05-14T08:06:42.841Z,509.00
2023-05-14T08:07:42.808Z,502.00
2023-05-14T08:08:42.837Z,501.00
2023-05-14T08:09:42.818Z,506.00
2023-05-14T08:10:42.844Z,506.00
2023-05-14T08:11:42.837Z,507.00
2023-05-14T08:12:42.856Z,508.00
2023-05-14T08:13:42.810Z,504.00
2023-05-14T08:14:42.815Z,500.00
2023-05-14T08:15:42.822Z,509.00
2023-05-14T08:16:42.906Z,511.00
2023-05-14T08:17:42.913Z,510.00
2023-05-14T08:18:42.943Z,513.00
2023-05-14T08:19:42.870Z,508.00
2023-05-14T08:20:42.905Z,514.00
2023-05-14T08:21:42.954Z,512.00
2023-05-14T08:22:42.975Z,511.00
2023-05-14T08:23:43.020Z,514.00
2023-05-14T08:24:43.044Z,514.00
2023-05-14T08:25:43.082Z,515.00
2023-05-14T08:26:43.195Z,514.00
2023-05-14T08:27:43.210Z,512.00
2023-05-14T08:28:43.271Z,512.00
2023-05-14T08:29:43.327Z,512.00
2023-05-14T08:30:43.389Z,514.00
2023-05-14T08:31:43.468Z,510.00
2023-05-14T08:32:43.554Z,513.00
2023-05-14T08:33:43.597Z,511.00
2023-05-14T08:34:44.134Z,509.00
2023-05-14T08:35:43.696Z,512.00
2023-05-14T08:36:43.760Z,510.00
2023-05-14T08:37:43.824Z,506.00
2023-05-14T08:38:43.880Z,510.00
2023-05-14T08:39:43.932Z,509.00
2023-05-14T08:40:43.991Z,504.00
2023-05-14T08:41:44.057Z,512.00
2023-05-14T08:42:44.118Z,514.00
2023-05-14T08:43:44.164Z,504.00
2023-05-14T08:44:44.257Z,509.00
2023-05-14T08:45:44.272Z,515.00
2023-05-14T08:46:44.295Z,507.00
2023-05-14T08:47:44.378Z,503.00
2023-05-14T08:48:44.416Z,505.00
2023-05-14T08:49:44.461Z,505.00
2023-05-14T08:50:44.483Z,502.00
2023-05-14T08:51:44.538Z,505.00
2023-05-14T08:52:44.578Z,506.00
2023-05-14T08:53:44.620Z,511.00
2023-05-14T08:54:44.648Z,510.00
2023-05-14T08:55:44.692Z,501.00
2023-05-14T08:56:44.719Z,510.00
2023-05-14T08:57:44.787Z,507.00
2023-05-14T08:58:44.791Z,510.00
2023-05-14T08:59:44.834Z,509.00
2023-05-14T09:00:44.868Z,506.00
2023-05-14T09:01:44.917Z,508.00
2023-05-14T09:02:45.007Z,508.00
2023-05-14T09:03:45.007Z,506.00
2023-05-14T09:04:45.015Z,511.00
2023-05-14T09:05:45.040Z,509.00
2023-05-14T09:06:45.080Z,511.00
2023-05-14T09:07:45.116Z,510.00
2023-05-14T09:08:45.150Z,511.00
2023-05-14T09:09:45.168Z,509.00
2023-05-14T09:10:45.210Z,510.00
2023-05-14T09:11:45.232Z,510.00
2023-05-14T09:12:45.268Z,514.00
2023-05-14T09:13:45.380Z,523.00
2023-05-14T09:14:45.324Z,519.00
2023-05-14T09:15:45.356Z,520.00
2023-05-14T09:16:45.434Z,517.00
2023-05-14T09:17:45.474Z,520.00
2023-05-14T09:18:45.536Z,520.00
2023-05-14T09:19:45.479Z,522.00
2023-05-14T09:20:45.520Z,522.00
2023-05-14T09:21:45.543Z,524.00
2023-05-14T09:22:45.580Z,523.00
2023-05-14T09:23:45.606Z,526.00
2023-05-14T09:24:45.628Z,526.00
2023-05-14T09:25:45.659Z,526.00
2023-05-14T09:26:45.684Z,528.00
2023-05-14T09:27:45.717Z,529.00
2023-05-14T09:28:45.762Z,529.00
2023-05-14T09:29:45.785Z,529.00
2023-05-14T09:30:45.844Z,528.00
2023-05-14T09:31:45.947Z,532.00
2023-05-14T09:32:46.047Z,529.00
2023-05-14T09:33:45.916Z,529.00
2023-05-14T09:34:45.960Z,526.00
2023-05-14T09:35:45.982Z,526.00
2023-05-14T09:36:46.008Z,526.00
2023-05-14T09:37:46.074Z,525.00
2023-05-14T09:38:46.074Z,530.00
2023-05-14T09:39:46.107Z,528.00
2023-05-14T09:40:46.149Z,531.00
2023-05-14T09:41:46.197Z,525.00
2023-05-14T09:42:46.216Z,527.00
2023-05-14T09:43:46.238Z,528.00
2023-05-14T09:44:46.270Z,532.00
2023-05-14T09:45:46.299Z,534.00
2023-05-14T09:46:46.329Z,530.00
2023-05-14T09:47:46.510Z,530.00
2023-05-14T09:48:46.465Z,526.00
2023-05-14T09:49:46.433Z,529.00
2023-05-14T09:50:46.463Z,532.00
2023-05-14T09:51:46.492Z,537.00
2023-05-14T09:52:46.515Z,537.00
2023-05-14T09:53:46.551Z,534.00
2023-05-14T09:54:46.597Z,536.00
2023-05-14T09:55:46.623Z,531.00
2023-05-14T09:56:46.653Z,542.00
2023-05-14T09:57:46.710Z,536.00
2023-05-14T09:58:46.717Z,538.00
2023-05-14T09:59:46.754Z,536.00
2023-05-14T10:00:46.814Z,533.00
2023-05-14T10:01:46.839Z,535.00
2023-05-14T10:02:46.934Z,532.00
2023-05-14T10:03:46.916Z,531.00
2023-05-14T10:04:46.988Z,534.00
2023-05-14T10:05:46.967Z,535.00
2023-05-14T10:06:47.003Z,538.00
2023-05-14T10:07:47.057Z,536.00
2023-05-14T10:08:47.058Z,534.00
2023-05-14T10:09:47.101Z,533.00
2023-05-14T10:10:47.137Z,533.00
2023-05-14T10:11:47.158Z,540.00
2023-05-14T10:12:47.237Z,535.00
2023-05-14T10:13:47.223Z,531.00
2023-05-14T10:14:47.302Z,533.00
2023-05-14T10:15:47.317Z,532.00
2023-05-14T10:16:47.376Z,536.00
2023-05-14T10:17:47.429Z,540.00
2023-05-14T10:18:47.455Z,537.00
2023-05-14T10:19:47.477Z,531.00
2023-05-14T10:20:47.496Z,538.00
2023-05-14T10:21:47.555Z,538.00
2023-05-14T10:22:47.597Z,533.00
2023-05-14T10:23:47.623Z,538.00
2023-05-14T10:24:47.678Z,534.00
2023-05-14T10:25:47.695Z,532.00
2023-05-14T10:26:47.749Z,526.00
2023-05-14T10:27:47.777Z,531.00
2023-05-14T10:28:47.809Z,532.00
2023-05-14T10:29:47.859Z,524.00
2023-05-14T10:30:47.879Z,526.00
2023-05-14T10:31:48.028Z,526.00
2023-05-14T10:32:48.002Z,522.00
2023-05-14T10:33:48.001Z,526.00
2023-05-14T10:34:48.037Z,524.00
2023-05-14T10:35:48.079Z,523.00
2023-05-14T10:36:48.128Z,521.00
2023-05-14T10:37:48.168Z,521.00
2023-05-14T10:38:48.202Z,521.00
2023-05-14T10:39:48.243Z,516.00
2023-05-14T10:40:48.296Z,518.00
2023-05-14T10:41:48.335Z,519.00
2023-05-14T10:42:48.382Z,522.00
2023-05-14T10:43:48.413Z,517.00
2023-05-14T10:44:48.472Z,513.00
2023-05-14T10:45:48.528Z,508.00
2023-05-14T10:46:48.567Z,516.00
2023-05-14T10:47:48.792Z,514.00
2023-05-14T10:48:48.640Z,511.00
2023-05-14T10:49:48.670Z,515.00
2023-05-14T10:50:48.741Z,511.00
2023-05-14T10:51:48.770Z,513.00
2023-05-14T10:52:48.822Z,509.00
2023-05-14T10:53:48.847Z,515.00
2023-05-14T10:54:48.907Z,515.00
2023-05-14T10:55:48.939Z,514.00
2023-05-14T10:56:48.986Z,517.00
2023-05-14T10:57:49.041Z,510.00
2023-05-14T10:58:49.081Z,509.00
2023-05-14T10:59:49.137Z,508.00
2023-05-14T11:00:49.177Z,511.00
2023-05-14T11:01:49.283Z,516.00
2023-05-14T11:02:49.278Z,516.00
2023-05-14T11:03:49.362Z,513.00
2023-05-14T11:04:49.364Z,507.00
2023-05-14T11:05:49.414Z,508.00
2023-05-14T11:06:49.437Z,505.00
2023-05-14T11:07:49.487Z,509.00
2023-05-14T11:08:49.540Z,518.00
2023-05-14T11:09:49.584Z,507.00
2023-05-14T11:10:49.623Z,510.00
2023-05-14T11:11:49.677Z,511.00
2023-05-14T11:12:49.737Z,504.00
2023-05-14T11:13:49.749Z,508.00
2023-05-14T11:14:49.803Z,500.00
2023-05-14T11:15:49.893Z,500.00
2023-05-14T11:16:50.025Z,502.00
2023-05-14T11:17:49.980Z,501.00
2023-05-14T11:18:50.006Z,506.00
2023-05-14T11:19:51.219Z,506.00
2023-05-14T11:20:50.052Z,517.00
2023-05-14T11:21:50.135Z,508.00
2023-05-14T11:22:50.191Z,507.00
2023-05-14T11:23:50.206Z,509.00
2023-05-14T11:24:50.246Z,513.00
2023-05-14T11:25:50.321Z,501.00
2023-05-14T11:26:50.340Z,501.00
2023-05-14T11:27:50.399Z,501.00
2023-05-14T11:28:50.460Z,508.00
2023-05-14T11:29:50.490Z,505.00
2023-05-14T11:30:50.541Z,500.00
2023-05-14T11:31:50.632Z,509.00
2023-05-14T11:32:50.762Z,507.00
2023-05-14T11:33:50.689Z,511.00
2023-05-14T11:34:50.729Z,512.00
2023-05-14T11:35:50.790Z,500.00
2023-05-14T11:36:50.840Z,505.00
2023-05-14T11:37:50.891Z,512.00
2023-05-14T11:38:50.957Z,507.00
2023-05-14T11:39:50.995Z,511.00
2023-05-14T11:40:51.046Z,515.00
2023-05-14T11:41:51.139Z,522.00
2023-05-14T11:42:51.176Z,513.00
2023-05-14T11:43:51.249Z,516.00
2023-05-14T11:44:51.283Z,516.00
2023-05-14T11:45:51.396Z,510.00
2023-05-14T11:46:51.386Z,511.00
2023-05-14T11:47:51.506Z,516.00
2023-05-14T11:48:51.493Z,510.00
2023-05-14T11:49:51.541Z,506.00
2023-05-14T11:50:51.603Z,507.00
2023-05-14T11:51:51.665Z,505.00
2023-05-14T11:52:51.708Z,507.00
2023-05-14T11:53:51.799Z,502.00
2023-05-14T11:54:51.856Z,514.00
2023-05-14T11:55:51.888Z,517.00
2023-05-14T11:56:51.956Z,522.00
2023-05-14T11:57:52.040Z,518.00
2023-05-14T11:58:52.053Z,525.00
2023-05-14T11:59:52.118Z,518.00
2023-05-14T12:00:52.166Z,521.00
2023-05-14T12:01:52.220Z,525.00
2023-05-14T12:02:52.350Z,520.00
2023-05-14T12:03:52.465Z,523.00
2023-05-14T12:04:52.461Z,527.00
2023-05-14T12:05:52.464Z,522.00
2023-05-14T12:06:52.530Z,531.00
2023-05-14T12:07:52.584Z,537.00
2023-05-14T12:08:52.662Z,534.00
2023-05-14T12:09:52.699Z,533.00
2023-05-14T12:10:52.778Z,536.00
2023-05-14T12:11:52.808Z,539.00
2023-05-14T12:12:52.892Z,542.00
2023-05-14T12:13:52.939Z,543.00
2023-05-14T12:14:52.988Z,543.00
2023-05-14T12:15:53.098Z,542.00
2023-05-14T12:16:53.105Z,542.00
2023-05-14T12:17:53.234Z,553.00
2023-05-14T12:18:53.236Z,553.00
2023-05-14T12:19:53.308Z,551.00
2023-05-14T12:20:53.373Z,549.00
2023-05-14T12:21:53.401Z,548.00
2023-05-14T12:22:53.484Z,550.00
2023-05-14T12:23:53.531Z,550.00
2023-05-14T12:24:53.581Z,556.00
2023-05-14T12:25:53.643Z,560.00
2023-05-14T12:26:53.703Z,560.00
2023-05-14T12:27:53.787Z,560.00
2023-05-14T12:28:53.807Z,565.00